San Fernando, Spain
Current Conditions -  °F | °C
As of 9:00 PM on Thursday 23 Oct 2014 (Local Time) from LERT Reporting Station
Clear Clear  
Wind Chill: 22°   Ceiling: Unl
Heat Index: 22°   Visibility: 6mi
Dew Point: 14°   Wind: 5mph
Humidity: 60%   Direction: 140°SE
Pressure: 30.03"   Gusts: NA
Location:  36.48°N, 6.2°W
Report Text: LERT 231900Z 14004KT CAVOK 22/14 Q1017 NOSIG
Loading
Personal Weather Stations






























Interactive Weather Map
Tropical Storm Tracking
New forecast layout! Learn more

10-Day Weather Forecast

Advertisements
Track Severe Weather on mobile